Time;durP1;ratioP1;P1;durP2;ratioP2;P2;SDS_P1;SDS_P2;PMS_P1;PMS_P2;Temp;Humidity;BMP_temperature;BMP_pressure;BME280_temperature;BME280_humidity;BME280_pressure;Samples;Min_cycle;Max_cycle;Signal;HPM_P1;HPM_P2
2021/09/28 00:01:13;;;;;;;16.50;3.00;;;;;;;;;;5053523;28;20059;-83
2021/09/28 00:03:40;;;;;;;10.38;2.05;;;;;;;;;;5053847;28;20049;-83
2021/09/28 00:06:07;;;;;;;22.42;3.10;;;;;;;;;;5055689;28;20140;-83
2021/09/28 00:08:33;;;;;;;17.65;2.78;;;;;;;;;;5054400;28;20052;-83
2021/09/28 00:11:00;;;;;;;11.43;1.98;;;;;;;;;;5055940;28;20053;-83
2021/09/28 00:13:26;;;;;;;16.67;2.83;;;;;;;;;;5045697;28;20057;-83
2021/09/28 00:15:54;;;;;;;10.85;2.47;;;;;;;;;;5037176;28;20071;-83
2021/09/28 00:18:22;;;;;;;13.75;2.55;;;;;;;;;;5053593;28;20069;-83
2021/09/28 00:20:49;;;;;;;14.65;2.25;;;;;;;;;;5036966;28;20480;-83
2021/09/28 00:23:15;;;;;;;15.82;3.00;;;;;;;;;;5041248;28;20166;-83
2021/09/28 00:25:42;;;;;;;13.02;3.70;;;;;;;;;;5058989;28;20049;-83
2021/09/28 00:28:09;;;;;;;13.95;2.38;;;;;;;;;;5043946;28;20374;-83
2021/09/28 00:30:35;;;;;;;15.70;2.67;;;;;;;;;;5055951;28;20115;-83
2021/09/28 00:33:02;;;;;;;20.77;3.20;;;;;;;;;;5041564;28;20109;-83
2021/09/28 00:35:29;;;;;;;12.73;2.40;;;;;;;;;;5058210;28;20066;-83
2021/09/28 00:37:56;;;;;;;24.05;2.92;;;;;;;;;;5033182;28;20134;-82
2021/09/28 00:40:23;;;;;;;18.20;3.60;;;;;;;;;;5023347;28;20361;-83
2021/09/28 00:42:53;;;;;;;17.25;2.72;;;;;;;;;;5031860;28;20049;-83
2021/09/28 00:45:19;;;;;;;13.05;2.97;;;;;;;;;;5017000;28;20075;-83
2021/09/28 00:47:46;;;;;;;21.52;2.88;;;;;;;;;;5016051;28;20088;-83
2021/09/28 00:50:13;;;;;;;10.55;2.35;;;;;;;;;;5034350;28;20049;-83
2021/09/28 00:52:39;;;;;;;14.40;2.80;;;;;;;;;;5037203;28;20061;-82
2021/09/28 00:55:07;;;;;;;10.25;2.67;;;;;;;;;;5036183;28;20053;-82
2021/09/28 00:57:34;;;;;;;16.08;2.50;;;;;;;;;;5035070;28;20049;-82
2021/09/28 01:00:03;;;;;;;10.10;2.80;;;;;;;;;;5036158;28;20049;-82
2021/09/28 01:02:32;;;;;;;11.25;2.50;;;;;;;;;;5034112;28;20229;-83
2021/09/28 01:05:03;;;;;;;17.88;2.72;;;;;;;;;;5036579;28;20109;-83
2021/09/28 01:07:30;;;;;;;13.98;2.88;;;;;;;;;;5033400;28;20053;-83
2021/09/28 01:09:58;;;;;;;18.70;3.10;;;;;;;;;;5035711;28;20217;-83
2021/09/28 01:12:27;;;;;;;14.30;3.03;;;;;;;;;;5036623;28;20072;-83
2021/09/28 01:14:54;;;;;;;17.27;2.85;;;;;;;;;;5036153;28;20083;-83
2021/09/28 01:17:21;;;;;;;13.13;3.13;;;;;;;;;;5050546;28;20060;-83
2021/09/28 01:19:47;;;;;;;11.88;3.28;;;;;;;;;;5023424;28;20397;-83
2021/09/28 01:22:15;;;;;;;9.57;2.90;;;;;;;;;;5015617;28;20057;-83
2021/09/28 01:24:43;;;;;;;14.25;3.28;;;;;;;;;;5015564;28;20385;-83
2021/09/28 01:27:09;;;;;;;17.63;3.28;;;;;;;;;;5031810;28;20061;-83
2021/09/28 01:29:36;;;;;;;11.80;2.65;;;;;;;;;;5016744;28;20100;-83
2021/09/28 01:32:03;;;;;;;21.92;3.60;;;;;;;;;;5014678;28;20061;-83
2021/09/28 01:34:30;;;;;;;10.60;3.08;;;;;;;;;;5014731;28;20050;-83
2021/09/28 01:36:57;;;;;;;15.32;3.53;;;;;;;;;;5014696;28;20062;-83
2021/09/28 01:39:24;;;;;;;14.57;3.38;;;;;;;;;;5031973;28;20062;-82
2021/09/28 01:41:52;;;;;;;17.00;3.42;;;;;;;;;;5031462;28;20136;-82
2021/09/28 01:44:20;;;;;;;8.82;2.70;;;;;;;;;;5030474;28;20081;-82
2021/09/28 01:46:47;;;;;;;17.77;3.60;;;;;;;;;;5031628;28;20061;-82
2021/09/28 01:49:15;;;;;;;11.73;3.58;;;;;;;;;;5044668;28;20361;-82
2021/09/28 01:51:45;;;;;;;16.85;4.03;;;;;;;;;;5034657;28;20048;-82
2021/09/28 01:54:12;;;;;;;14.40;4.07;;;;;;;;;;5029709;28;20049;-82
2021/09/28 01:56:40;;;;;;;17.13;3.72;;;;;;;;;;5031500;28;20054;-83
2021/09/28 01:59:12;;;;;;;13.88;3.53;;;;;;;;;;5026969;28;20049;-83
2021/09/28 02:01:38;;;;;;;10.73;4.03;;;;;;;;;;5034145;28;20054;-83
2021/09/28 02:04:05;;;;;;;13.45;3.40;;;;;;;;;;5037581;28;20061;-84
2021/09/28 02:06:37;;;;;;;13.63;4.22;;;;;;;;;;5036369;28;20330;-84
2021/09/28 02:09:05;;;;;;;12.23;4.10;;;;;;;;;;5020329;28;20190;-84
2021/09/28 02:11:32;;;;;;;18.20;4.85;;;;;;;;;;5033727;28;20572;-83
2021/09/28 02:14:00;;;;;;;13.25;4.28;;;;;;;;;;5034059;28;20050;-83
2021/09/28 02:16:26;;;;;;;17.90;4.63;;;;;;;;;;5027832;28;20046;-83
2021/09/28 02:18:53;;;;;;;7.40;4.10;;;;;;;;;;5018040;28;20054;-83
2021/09/28 02:21:21;;;;;;;21.30;4.10;;;;;;;;;;5035200;28;20049;-84
2021/09/28 02:23:48;;;;;;;15.10;4.68;;;;;;;;;;5034602;28;20068;-83
2021/09/28 02:26:15;;;;;;;19.38;5.35;;;;;;;;;;5036350;28;20427;-83
2021/09/28 02:28:42;;;;;;;10.65;4.80;;;;;;;;;;5035434;28;20277;-84
2021/09/28 02:31:08;;;;;;;12.13;4.13;;;;;;;;;;5034882;28;20057;-84
2021/09/28 02:33:38;;;;;;;8.73;4.68;;;;;;;;;;5034987;28;20240;-83
2021/09/28 02:36:05;;;;;;;12.40;4.93;;;;;;;;;;5018885;28;20058;-83
2021/09/28 02:38:31;;;;;;;20.33;5.20;;;;;;;;;;5033403;28;20052;-83
2021/09/28 02:40:58;;;;;;;10.82;4.75;;;;;;;;;;5034262;28;20046;-83
2021/09/28 02:43:32;;;;;;;15.57;4.72;;;;;;;;;;5043684;28;20125;-83
2021/09/28 02:45:59;;;;;;;17.95;4.75;;;;;;;;;;5036982;28;20059;-83
2021/09/28 02:48:26;;;;;;;13.98;4.68;;;;;;;;;;5038252;28;20435;-83
2021/09/28 02:50:54;;;;;;;15.60;5.20;;;;;;;;;;5037894;28;20076;-83
2021/09/28 02:53:23;;;;;;;22.90;5.50;;;;;;;;;;5036188;28;20077;-82
2021/09/28 02:55:49;;;;;;;9.70;4.72;;;;;;;;;;5036461;28;20049;-83
2021/09/28 02:58:19;;;;;;;19.23;4.90;;;;;;;;;;5036973;28;20045;-82
2021/09/28 03:00:46;;;;;;;9.77;4.65;;;;;;;;;;5036651;28;20102;-82
2021/09/28 03:03:12;;;;;;;17.42;5.80;;;;;;;;;;5035861;28;20050;-82
2021/09/28 03:05:42;;;;;;;13.23;5.70;;;;;;;;;;5037390;28;20542;-82
2021/09/28 03:08:09;;;;;;;17.10;6.00;;;;;;;;;;5037120;28;20057;-82
2021/09/28 03:10:36;;;;;;;14.68;6.18;;;;;;;;;;5035361;28;20167;-82
2021/09/28 03:13:03;;;;;;;15.65;6.13;;;;;;;;;;5034288;28;20049;-82
2021/09/28 03:15:30;;;;;;;11.68;6.47;;;;;;;;;;5033725;28;20049;-82
2021/09/28 03:17:57;;;;;;;18.55;6.88;;;;;;;;;;5035539;28;20053;-82
2021/09/28 03:20:23;;;;;;;18.42;8.80;;;;;;;;;;5036319;28;20053;-82
2021/09/28 03:22:50;;;;;;;15.05;7.60;;;;;;;;;;5036464;28;20057;-81
2021/09/28 03:25:17;;;;;;;19.45;7.60;;;;;;;;;;5035787;28;20063;-81
2021/09/28 03:27:44;;;;;;;24.38;7.82;;;;;;;;;;5035638;28;20056;-82
2021/09/28 03:30:10;;;;;;;14.90;7.22;;;;;;;;;;5036689;28;20110;-83
2021/09/28 03:32:37;;;;;;;21.92;7.78;;;;;;;;;;5035858;28;20060;-82
2021/09/28 03:35:11;;;;;;;17.05;8.52;;;;;;;;;;5041312;28;20236;-82
2021/09/28 03:37:42;;;;;;;21.98;9.90;;;;;;;;;;5045337;28;20056;-83
2021/09/28 03:40:13;;;;;;;18.80;10.02;;;;;;;;;;5040511;28;20153;-83
2021/09/28 03:42:39;;;;;;;18.40;9.45;;;;;;;;;;5035792;28;20045;-82
2021/09/28 03:45:06;;;;;;;26.10;9.77;;;;;;;;;;5036786;28;20314;-82
2021/09/28 03:47:33;;;;;;;15.35;8.93;;;;;;;;;;5036110;28;20049;-83
2021/09/28 03:50:00;;;;;;;17.65;10.40;;;;;;;;;;5035380;28;20181;-82
2021/09/28 03:52:27;;;;;;;24.55;11.38;;;;;;;;;;5026209;28;20128;-82
2021/09/28 03:54:57;;;;;;;33.72;13.60;;;;;;;;;;5015164;28;20504;-82
2021/09/28 03:57:27;;;;;;;30.00;16.30;;;;;;;;;;5015115;28;20053;-82
2021/09/28 03:59:55;;;;;;;32.60;17.05;;;;;;;;;;5015435;28;20046;-82
2021/09/28 04:02:22;;;;;;;21.30;13.88;;;;;;;;;;5013136;28;20050;-82
2021/09/28 04:04:49;;;;;;;22.50;12.73;;;;;;;;;;5014048;28;20484;-83
2021/09/28 04:07:28;;;;;;;19.13;12.18;;;;;;;;;;5014936;28;20381;-82
2021/09/28 04:09:54;;;;;;;24.02;12.60;;;;;;;;;;5019923;28;20051;-82
2021/09/28 04:12:23;;;;;;;28.13;15.45;;;;;;;;;;5026931;28;20041;-82
2021/09/28 04:14:51;;;;;;;20.35;12.02;;;;;;;;;;5016868;28;20418;-83
2021/09/28 04:17:17;;;;;;;35.65;18.33;;;;;;;;;;5013823;28;20050;-83
2021/09/28 04:19:44;;;;;;;17.67;12.70;;;;;;;;;;5013649;28;20072;-82
2021/09/28 04:22:10;;;;;;;22.15;13.43;;;;;;;;;;5012313;28;20171;-83
2021/09/28 04:24:41;;;;;;;26.05;15.40;;;;;;;;;;5013005;28;20052;-82
2021/09/28 04:27:11;;;;;;;25.13;13.38;;;;;;;;;;5029432;28;20058;-82
2021/09/28 04:29:38;;;;;;;32.70;17.23;;;;;;;;;;5031251;28;20103;-82
2021/09/28 04:32:05;;;;;;;24.40;15.40;;;;;;;;;;5019867;28;20049;-83
2021/09/28 04:34:31;;;;;;;23.60;15.30;;;;;;;;;;5013658;28;20041;-83
2021/09/28 04:36:58;;;;;;;24.92;15.27;;;;;;;;;;5034810;28;20060;-82
2021/09/28 04:39:27;;;;;;;29.85;16.65;;;;;;;;;;5033581;28;20127;-83
2021/09/28 04:41:54;;;;;;;23.85;16.20;;;;;;;;;;5035462;28;20055;-81
2021/09/28 04:44:21;;;;;;;24.35;15.32;;;;;;;;;;5028739;28;20077;-83
2021/09/28 04:46:47;;;;;;;23.30;15.07;;;;;;;;;;5009722;28;20293;-82
2021/09/28 04:49:14;;;;;;;30.85;20.08;;;;;;;;;;5012271;28;20483;-83
2021/09/28 04:51:44;;;;;;;23.98;16.45;;;;;;;;;;5011449;28;20054;-83
2021/09/28 04:54:13;;;;;;;23.30;16.63;;;;;;;;;;5023822;28;20283;-82
2021/09/28 04:56:43;;;;;;;28.85;18.05;;;;;;;;;;5032902;28;20041;-84
2021/09/28 04:59:10;;;;;;;27.10;17.23;;;;;;;;;;5035602;28;20049;-82
2021/09/28 05:01:36;;;;;;;29.55;16.33;;;;;;;;;;5030847;28;20057;-82
2021/09/28 05:04:03;;;;;;;32.08;18.02;;;;;;;;;;5033358;28;20064;-82
2021/09/28 05:06:33;;;;;;;23.40;14.65;;;;;;;;;;5029330;28;20046;-83
2021/09/28 05:09:04;;;;;;;25.95;15.63;;;;;;;;;;5012583;28;20381;-83
2021/09/28 05:11:31;;;;;;;27.55;16.50;;;;;;;;;;5009736;28;20156;-83
2021/09/28 05:14:05;;;;;;;27.77;15.82;;;;;;;;;;5022535;28;20122;-83
2021/09/28 05:16:31;;;;;;;27.90;16.48;;;;;;;;;;5027648;28;20398;-83
2021/09/28 05:18:58;;;;;;;21.60;15.65;;;;;;;;;;5028087;28;20064;-83
2021/09/28 05:21:26;;;;;;;25.85;17.33;;;;;;;;;;5027015;28;20517;-82
2021/09/28 05:23:53;;;;;;;29.20;18.95;;;;;;;;;;5028296;28;20109;-83
2021/09/28 05:26:24;;;;;;;28.30;19.13;;;;;;;;;;5030090;28;20242;-83
2021/09/28 05:28:54;;;;;;;29.98;17.45;;;;;;;;;;5039189;28;20045;-83
2021/09/28 05:31:21;;;;;;;25.90;18.60;;;;;;;;;;5036333;28;20087;-83
2021/09/28 05:33:48;;;;;;;26.35;16.92;;;;;;;;;;5032677;28;20291;-83
2021/09/28 05:36:15;;;;;;;27.38;17.95;;;;;;;;;;5020133;28;20050;-83
2021/09/28 05:38:43;;;;;;;37.40;21.95;;;;;;;;;;5013464;28;20522;-83
2021/09/28 05:41:09;;;;;;;30.98;21.25;;;;;;;;;;5030515;28;20310;-83
2021/09/28 05:43:43;;;;;;;33.20;20.17;;;;;;;;;;5028608;28;20127;-83
2021/09/28 05:46:22;;;;;;;30.30;20.13;;;;;;;;;;5012911;28;20112;-83
2021/09/28 05:48:48;;;;;;;33.65;20.80;;;;;;;;;;5030931;28;20067;-82
2021/09/28 05:51:20;;;;;;;33.40;20.48;;;;;;;;;;5028566;28;20053;-82
2021/09/28 05:53:50;;;;;;;34.25;22.98;;;;;;;;;;5023066;28;20240;-82
2021/09/28 05:56:17;;;;;;;34.13;23.52;;;;;;;;;;5024714;28;20102;-82
2021/09/28 05:58:50;;;;;;;39.13;23.45;;;;;;;;;;5027079;28;20092;-82
2021/09/28 06:01:16;;;;;;;54.00;30.60;;;;;;;;;;5023103;28;20111;-82
2021/09/28 06:03:46;;;;;;;45.05;31.10;;;;;;;;;;5041958;28;20151;-82
2021/09/28 06:06:13;;;;;;;41.90;27.08;;;;;;;;;;5043358;28;20222;-82
2021/09/28 06:08:43;;;;;;;37.50;27.58;;;;;;;;;;5026272;28;20131;-83
2021/09/28 06:11:10;;;;;;;29.35;20.27;;;;;;;;;;5020903;28;20121;-82
2021/09/28 06:13:37;;;;;;;30.45;22.20;;;;;;;;;;5018276;28;20058;-82
2021/09/28 06:16:04;;;;;;;26.48;18.75;;;;;;;;;;5022175;28;20412;-82
2021/09/28 06:18:31;;;;;;;35.30;22.77;;;;;;;;;;5022929;28;20140;-83
2021/09/28 06:20:57;;;;;;;28.25;18.98;;;;;;;;;;5017426;28;20054;-83
2021/09/28 06:23:24;;;;;;;29.15;17.15;;;;;;;;;;5024084;28;20123;-83
2021/09/28 06:25:51;;;;;;;25.08;14.63;;;;;;;;;;5018543;28;20049;-82
2021/09/28 06:28:18;;;;;;;24.13;13.82;;;;;;;;;;5026394;28;20057;-84
2021/09/28 06:30:45;;;;;;;17.52;11.65;;;;;;;;;;5023009;28;20414;-84
2021/09/28 06:33:12;;;;;;;17.27;10.95;;;;;;;;;;5022959;28;20148;-85
2021/09/28 06:35:39;;;;;;;16.65;9.10;;;;;;;;;;5021657;28;20258;-85
2021/09/28 06:38:10;;;;;;;14.07;8.20;;;;;;;;;;5020486;28;20045;-85
2021/09/28 06:40:36;;;;;;;16.33;8.27;;;;;;;;;;5029510;28;20136;-85
2021/09/28 06:43:04;;;;;;;15.27;8.77;;;;;;;;;;5024280;28;20052;-84
2021/09/28 06:45:37;;;;;;;23.58;9.13;;;;;;;;;;5030357;28;20053;-85
2021/09/28 06:48:18;;;;;;;16.92;8.63;;;;;;;;;;5035599;28;20218;-85
2021/09/28 06:50:46;;;;;;;17.42;9.07;;;;;;;;;;5028431;28;20053;-86
2021/09/28 06:53:27;;;;;;;14.57;8.95;;;;;;;;;;5028676;28;20064;-85
2021/09/28 06:55:59;;;;;;;15.38;7.72;;;;;;;;;;5022202;28;20092;-86
2021/09/28 06:58:29;;;;;;;18.90;7.45;;;;;;;;;;5022336;28;20103;-84
2021/09/28 07:03:53;;;;;;;15.50;6.95;;;;;;;;;;5025395;28;20046;-86
2021/09/28 07:06:26;;;;;;;19.08;7.40;;;;;;;;;;5021316;28;20064;-86
2021/09/28 07:08:56;;;;;;;16.35;6.45;;;;;;;;;;5024939;28;20053;-86
2021/09/28 07:11:23;;;;;;;13.00;6.82;;;;;;;;;;5022576;28;20049;-85
2021/09/28 07:13:55;;;;;;;12.82;6.38;;;;;;;;;;5016204;28;20050;-85
2021/09/28 07:16:22;;;;;;;12.70;6.90;;;;;;;;;;5019867;28;20100;-86
2021/09/28 07:18:49;;;;;;;10.55;6.07;;;;;;;;;;5015115;28;20046;-86
2021/09/28 07:21:17;;;;;;;14.35;7.38;;;;;;;;;;5035643;28;20408;-86
2021/09/28 07:23:44;;;;;;;14.73;7.07;;;;;;;;;;5019071;28;20060;-86
2021/09/28 07:26:12;;;;;;;15.60;6.90;;;;;;;;;;5026160;28;20236;-86
2021/09/28 07:28:45;;;;;;;14.43;7.30;;;;;;;;;;5015175;28;20266;-87
2021/09/28 07:31:17;;;;;;;16.40;6.63;;;;;;;;;;5029685;28;20151;-87
2021/09/28 07:33:44;;;;;;;12.98;6.80;;;;;;;;;;5013416;28;20078;-87
2021/09/28 07:36:16;;;;;;;13.45;6.90;;;;;;;;;;5021767;28;20256;-85
2021/09/28 07:38:43;;;;;;;13.60;7.13;;;;;;;;;;5015721;28;20045;-85
2021/09/28 07:41:10;;;;;;;20.70;7.13;;;;;;;;;;5020349;28;20266;-85
2021/09/28 07:43:37;;;;;;;11.88;6.35;;;;;;;;;;5019868;28;20068;-85
2021/09/28 07:46:03;;;;;;;14.80;5.82;;;;;;;;;;5022653;28;20107;-86
2021/09/28 07:48:41;;;;;;;13.73;6.05;;;;;;;;;;5025006;28;20057;-86
2021/09/28 07:51:08;;;;;;;13.73;6.68;;;;;;;;;;5022988;28;20373;-85
2021/09/28 07:53:35;;;;;;;10.98;5.95;;;;;;;;;;5020868;28;20053;-84
2021/09/28 07:56:02;;;;;;;16.83;6.30;;;;;;;;;;5027593;28;20049;-85
2021/09/28 07:58:31;;;;;;;14.73;5.93;;;;;;;;;;5031304;28;20072;-86
2021/09/28 08:01:00;;;;;;;13.48;5.88;;;;;;;;;;5026865;28;20290;-84
2021/09/28 08:03:30;;;;;;;10.93;5.78;;;;;;;;;;5033974;28;20053;-85
2021/09/28 08:05:59;;;;;;;12.68;5.78;;;;;;;;;;5023253;28;20113;-84
2021/09/28 08:08:28;;;;;;;15.25;5.68;;;;;;;;;;5022428;28;20049;-86
2021/09/28 08:10:56;;;;;;;10.15;5.80;;;;;;;;;;5023715;28;20050;-86
2021/09/28 08:13:23;;;;;;;15.25;7.15;;;;;;;;;;5023908;28;20133;-86
2021/09/28 08:15:50;;;;;;;16.45;6.75;;;;;;;;;;5025573;28;20045;-86
2021/09/28 08:18:16;;;;;;;21.27;6.72;;;;;;;;;;5030516;28;20112;-84
2021/09/28 08:20:44;;;;;;;11.75;6.32;;;;;;;;;;5049405;28;20204;-85
2021/09/28 08:23:11;;;;;;;15.10;6.15;;;;;;;;;;5033105;28;20045;-86
2021/09/28 08:31:12;;;;;;;;;;;;;;;;;;5033378;28;20095;-85
2021/09/28 08:33:39;;;;;;;15.70;7.70;;;;;;;;;;5028377;28;20006;-84
2021/09/28 08:36:06;;;;;;;11.57;5.93;;;;;;;;;;5044295;28;20134;-84
2021/09/28 08:38:36;;;;;;;13.70;6.43;;;;;;;;;;5025804;28;20429;-85
2021/09/28 08:41:04;;;;;;;16.02;6.35;;;;;;;;;;5025263;28;20049;-85
2021/09/28 08:43:30;;;;;;;12.43;6.05;;;;;;;;;;5026095;28;20405;-85
2021/09/28 08:45:57;;;;;;;11.68;5.80;;;;;;;;;;5027865;28;20133;-86
2021/09/28 08:48:25;;;;;;;16.40;5.28;;;;;;;;;;5026453;28;20380;-84
2021/09/28 08:50:52;;;;;;;16.23;6.13;;;;;;;;;;5027815;28;20061;-85
2021/09/28 08:53:31;;;;;;;18.05;6.03;;;;;;;;;;5026524;28;20088;-85
2021/09/28 08:55:57;;;;;;;15.88;6.00;;;;;;;;;;5026744;28;20232;-84
2021/09/28 08:58:24;;;;;;;17.60;7.00;;;;;;;;;;5027564;28;20282;-85
2021/09/28 09:00:52;;;;;;;15.80;5.80;;;;;;;;;;5027091;28;20320;-84
2021/09/28 09:03:30;;;;;;;10.93;5.72;;;;;;;;;;5029232;28;20153;-85
2021/09/28 09:05:58;;;;;;;15.00;4.90;;;;;;;;;;5032268;28;20122;-85
2021/09/28 09:08:26;;;;;;;11.25;5.32;;;;;;;;;;5034792;28;20508;-85
2021/09/28 09:11:15;;;;;;;16.13;5.32;;;;;;;;;;5043756;28;20085;-85
2021/09/28 09:13:43;;;;;;;9.90;4.60;;;;;;;;;;5043713;28;20288;-85
2021/09/28 09:16:13;;;;;;;13.75;5.35;;;;;;;;;;5035589;28;20049;-84
2021/09/28 09:18:43;;;;;;;19.13;5.93;;;;;;;;;;5033982;28;20111;-85
2021/09/28 09:21:10;;;;;;;12.25;4.90;;;;;;;;;;5020664;28;20050;-84
2021/09/28 09:23:38;;;;;;;10.32;4.63;;;;;;;;;;5019154;28;20313;-87
2021/09/28 09:26:11;;;;;;;12.43;4.60;;;;;;;;;;5028941;28;20168;-85
2021/09/28 09:28:47;;;;;;;14.57;4.85;;;;;;;;;;5008619;28;20061;-84
2021/09/28 09:31:22;;;;;;;10.98;5.53;;;;;;;;;;5010394;28;20050;-85
2021/09/28 09:33:52;;;;;;;13.48;5.57;;;;;;;;;;5028406;28;20058;-86
2021/09/28 09:36:20;;;;;;;11.55;5.53;;;;;;;;;;5021824;28;20050;-85
2021/09/28 09:38:49;;;;;;;11.10;5.55;;;;;;;;;;5018787;28;20125;-83
2021/09/28 09:41:16;;;;;;;10.85;6.18;;;;;;;;;;5026870;28;20060;-84
2021/09/28 09:43:48;;;;;;;16.00;5.50;;;;;;;;;;5030093;28;20119;-83
2021/09/28 09:46:17;;;;;;;11.63;5.97;;;;;;;;;;5030128;28;20065;-84
2021/09/28 09:48:45;;;;;;;15.45;7.10;;;;;;;;;;5024992;28;20180;-85
2021/09/28 09:51:38;;;;;;;16.65;6.13;;;;;;;;;;5018554;28;20227;-85
2021/09/28 09:54:06;;;;;;;13.32;6.40;;;;;;;;;;5013405;28;20228;-85
2021/09/28 09:56:47;;;;;;;18.13;6.32;;;;;;;;;;5025765;28;20058;-85
2021/09/28 09:59:15;;;;;;;19.52;6.80;;;;;;;;;;5026533;28;20068;-85
2021/09/28 10:01:42;;;;;;;13.27;5.13;;;;;;;;;;5015214;28;20112;-85
2021/09/28 10:04:13;;;;;;;13.55;5.30;;;;;;;;;;5022158;28;20136;-85
2021/09/28 10:06:40;;;;;;;12.88;5.30;;;;;;;;;;5031144;28;20367;-85
2021/09/28 10:09:10;;;;;;;14.57;6.65;;;;;;;;;;5030929;28;20045;-83
2021/09/28 10:11:37;;;;;;;10.98;5.60;;;;;;;;;;5028477;28;20053;-84
2021/09/28 10:14:26;;;;;;;15.60;6.20;;;;;;;;;;5015473;28;20173;-84
2021/09/28 10:16:56;;;;;;;15.82;5.82;;;;;;;;;;5012969;28;20049;-85
2021/09/28 10:19:26;;;;;;;14.95;6.25;;;;;;;;;;5015238;28;20061;-84
2021/09/28 10:21:54;;;;;;;15.18;5.95;;;;;;;;;;5028366;28;20053;-84
2021/09/28 10:24:20;;;;;;;10.63;5.30;;;;;;;;;;5031963;28;20045;-85
2021/09/28 10:26:56;;;;;;;13.48;6.05;;;;;;;;;;5032861;28;20049;-84
2021/09/28 10:29:45;;;;;;;13.85;6.45;;;;;;;;;;5040852;28;20106;-83
2021/09/28 10:32:22;;;;;;;14.77;5.38;;;;;;;;;;5030406;28;20049;-85
2021/09/28 10:35:01;;;;;;;10.43;5.55;;;;;;;;;;5026842;28;20116;-85
2021/09/28 10:37:46;;;;;;;13.82;4.70;;;;;;;;;;5029787;28;20058;-84
2021/09/28 10:40:13;;;;;;;17.50;6.15;;;;;;;;;;5028920;28;20184;-84
2021/09/28 10:42:53;;;;;;;10.40;5.78;;;;;;;;;;5035732;28;20045;-84
2021/09/28 10:45:29;;;;;;;11.13;5.72;;;;;;;;;;5031709;28;20046;-86
2021/09/28 10:48:25;;;;;;;16.23;6.10;;;;;;;;;;5022778;28;20085;-86
2021/09/28 10:51:12;;;;;;;16.45;7.30;;;;;;;;;;5024786;28;20466;-85
2021/09/28 10:53:47;;;;;;;12.98;6.10;;;;;;;;;;5041561;28;20047;-87
2021/09/28 10:56:14;;;;;;;11.02;5.38;;;;;;;;;;5031702;28;20396;-86
2021/09/28 10:58:52;;;;;;;10.95;5.65;;;;;;;;;;5030615;28;20061;-87
2021/09/28 11:01:20;;;;;;;15.75;6.80;;;;;;;;;;5032412;28;20165;-86
2021/09/28 11:03:56;;;;;;;11.25;5.05;;;;;;;;;;5030960;28;20041;-87
2021/09/28 11:06:45;;;;;;;20.98;4.70;;;;;;;;;;5035805;28;20252;-86
2021/09/28 11:09:13;;;;;;;14.02;5.00;;;;;;;;;;5043240;28;20068;-86
2021/09/28 11:11:40;;;;;;;10.68;5.18;;;;;;;;;;5042274;28;20092;-86
2021/09/28 11:14:07;;;;;;;16.77;6.65;;;;;;;;;;5043413;28;20216;-86
2021/09/28 11:16:45;;;;;;;12.82;4.38;;;;;;;;;;5034002;28;20053;-86
2021/09/28 11:19:11;;;;;;;11.02;4.40;;;;;;;;;;5043740;28;20064;-85
2021/09/28 11:21:42;;;;;;;13.02;5.50;;;;;;;;;;5043536;28;20072;-86
2021/09/28 11:24:12;;;;;;;17.85;5.18;;;;;;;;;;5037077;28;20047;-86
2021/09/28 11:26:42;;;;;;;13.65;4.72;;;;;;;;;;5030690;28;20272;-86
2021/09/28 11:29:12;;;;;;;15.27;4.35;;;;;;;;;;5026359;28;20042;-85
2021/09/28 11:31:40;;;;;;;16.77;4.82;;;;;;;;;;5043374;28;20160;-85
2021/09/28 11:34:09;;;;;;;12.85;4.32;;;;;;;;;;5028313;28;20269;-86
2021/09/28 11:36:40;;;;;;;11.20;4.20;;;;;;;;;;5027120;28;20037;-86
2021/09/28 11:39:13;;;;;;;8.02;3.70;;;;;;;;;;5018138;28;20294;-86
2021/09/28 11:41:42;;;;;;;14.00;4.47;;;;;;;;;;5023186;28;20057;-86
2021/09/28 11:44:08;;;;;;;13.75;4.63;;;;;;;;;;5007183;28;20042;-86
2021/09/28 11:46:38;;;;;;;16.88;4.50;;;;;;;;;;5023984;28;20113;-86
2021/09/28 11:49:07;;;;;;;15.30;4.75;;;;;;;;;;5027640;28;20251;-85
2021/09/28 11:51:35;;;;;;;10.73;3.90;;;;;;;;;;5026247;28;20053;-85
2021/09/28 11:54:12;;;;;;;12.65;3.45;;;;;;;;;;5027604;28;20046;-86
2021/09/28 11:56:41;;;;;;;9.60;3.25;;;;;;;;;;5021548;28;20136;-86
2021/09/28 11:59:14;;;;;;;18.95;4.50;;;;;;;;;;5024430;28;20049;-86
2021/09/28 12:01:53;;;;;;;8.65;2.50;;;;;;;;;;5025211;28;20053;-86
2021/09/28 12:07:00;;;;;;;9.52;2.80;;;;;;;;;;5033330;28;20363;-86
2021/09/28 12:09:36;;;;;;;12.02;3.00;;;;;;;;;;5029426;28;20054;-85
2021/09/28 12:12:06;;;;;;;;;;;;;;;;;;5029789;28;20271;-84
2021/09/28 12:14:37;;;;;;;8.13;2.72;;;;;;;;;;5043774;28;20108;-84
2021/09/28 12:17:10;;;;;;;9.77;2.35;;;;;;;;;;5028260;28;20076;-86
2021/09/28 12:19:37;;;;;;;10.48;2.80;;;;;;;;;;5025463;28;20068;-87
2021/09/28 12:22:04;;;;;;;11.73;2.60;;;;;;;;;;5028249;28;20053;-85
2021/09/28 12:25:01;;;;;;;8.15;2.60;;;;;;;;;;5026493;28;20172;-85
2021/09/28 12:27:28;;;;;;;18.13;2.80;;;;;;;;;;5011861;28;20256;-84
2021/09/28 12:29:55;;;;;;;7.68;2.10;;;;;;;;;;5011040;28;20292;-85
2021/09/28 12:32:27;;;;;;;12.07;2.30;;;;;;;;;;5004008;28;20332;-85
2021/09/28 12:34:58;;;;;;;9.02;2.58;;;;;;;;;;5004464;28;20080;-85
2021/09/28 12:37:26;;;;;;;15.05;2.80;;;;;;;;;;5004130;28;20309;-85
2021/09/28 12:40:09;;;;;;;12.40;2.83;;;;;;;;;;5007596;28;20053;-84
2021/09/28 12:42:39;;;;;;;9.43;3.03;;;;;;;;;;5004427;28;20054;-84
2021/09/28 12:45:07;;;;;;;10.75;2.70;;;;;;;;;;5024269;28;20128;-84
2021/09/28 12:47:36;;;;;;;15.90;3.22;;;;;;;;;;5026585;28;20181;-86
2021/09/28 12:50:33;;;;;;;13.02;2.35;;;;;;;;;;5031689;28;20236;-84
2021/09/28 12:53:08;;;;;;;10.07;2.85;;;;;;;;;;5006486;28;20184;-84
2021/09/28 12:55:37;;;;;;;13.02;2.80;;;;;;;;;;5013666;28;20124;-85
2021/09/28 12:58:09;;;;;;;13.07;2.67;;;;;;;;;;5025805;28;20399;-85
2021/09/28 13:00:36;;;;;;;11.70;2.50;;;;;;;;;;5025113;28;20050;-84
2021/09/28 13:03:05;;;;;;;10.55;2.20;;;;;;;;;;5021416;28;20486;-84
2021/09/28 13:05:35;;;;;;;9.63;2.25;;;;;;;;;;5022719;28;20053;-84
2021/09/28 13:08:05;;;;;;;8.30;2.40;;;;;;;;;;5028051;28;20122;-83
2021/09/28 13:10:35;;;;;;;11.02;2.38;;;;;;;;;;5017870;28;20228;-83
2021/09/28 13:13:02;;;;;;;10.13;2.28;;;;;;;;;;5024855;28;20115;-83
2021/09/28 13:15:29;;;;;;;8.88;2.75;;;;;;;;;;5024428;28;20336;-83
2021/09/28 13:17:56;;;;;;;8.05;2.00;;;;;;;;;;5025908;28;20045;-83
2021/09/28 13:20:23;;;;;;;15.82;2.63;;;;;;;;;;5028590;28;20364;-84
2021/09/28 13:22:50;;;;;;;8.93;1.92;;;;;;;;;;5007616;28;20077;-84
2021/09/28 13:25:17;;;;;;;11.45;2.40;;;;;;;;;;5025206;28;20045;-84
2021/09/28 13:27:47;;;;;;;10.13;2.10;;;;;;;;;;5006211;28;20053;-84
2021/09/28 13:30:14;;;;;;;8.25;1.70;;;;;;;;;;5010622;28;20125;-84
2021/09/28 13:32:41;;;;;;;11.57;1.65;;;;;;;;;;5005934;28;20054;-84
2021/09/28 13:35:07;;;;;;;7.50;1.65;;;;;;;;;;5004555;28;20230;-84
2021/09/28 13:37:34;;;;;;;7.35;1.73;;;;;;;;;;4986583;28;20058;-84
2021/09/28 13:40:01;;;;;;;9.35;2.40;;;;;;;;;;4992971;28;20562;-83
2021/09/28 13:42:28;;;;;;;12.73;2.28;;;;;;;;;;4990291;28;20046;-84
2021/09/28 13:44:55;;;;;;;11.98;1.67;;;;;;;;;;5024260;28;20041;-84
2021/09/28 13:47:23;;;;;;;10.32;1.88;;;;;;;;;;5010568;28;20045;-84
2021/09/28 13:49:50;;;;;;;8.05;1.80;;;;;;;;;;5013229;28;20080;-84
2021/09/28 13:52:17;;;;;;;11.30;2.20;;;;;;;;;;5014878;28;20353;-84
2021/09/28 13:54:46;;;;;;;11.43;2.38;;;;;;;;;;5019128;28;20511;-83
2021/09/28 13:57:13;;;;;;;13.18;2.78;;;;;;;;;;5032135;28;20096;-83
2021/09/28 13:59:49;;;;;;;10.85;2.50;;;;;;;;;;5009694;28;20045;-83
2021/09/28 14:02:18;;;;;;;9.85;2.58;;;;;;;;;;4993353;28;20064;-84
2021/09/28 14:04:46;;;;;;;10.85;3.33;;;;;;;;;;4979974;28;20237;-85
2021/09/28 14:07:13;;;;;;;14.05;2.90;;;;;;;;;;4995805;28;20060;-84
2021/09/28 14:09:40;;;;;;;9.05;2.72;;;;;;;;;;4994836;28;20068;-84
2021/09/28 14:12:08;;;;;;;8.52;2.50;;;;;;;;;;4985988;28;20038;-84
2021/09/28 14:14:35;;;;;;;12.75;3.05;;;;;;;;;;5004638;28;20041;-84
2021/09/28 14:17:02;;;;;;;17.23;3.25;;;;;;;;;;4995742;28;20088;-83
2021/09/28 14:19:28;;;;;;;12.32;2.90;;;;;;;;;;5020618;28;20068;-83
2021/09/28 14:21:55;;;;;;;13.57;2.72;;;;;;;;;;5028538;28;20045;-84
2021/09/28 14:24:25;;;;;;;17.48;2.83;;;;;;;;;;5056882;28;20097;-83
2021/09/28 14:26:52;;;;;;;10.30;3.50;;;;;;;;;;5035929;28;20201;-84
2021/09/28 14:29:18;;;;;;;14.35;3.00;;;;;;;;;;5023483;28;20046;-83
2021/09/28 14:31:48;;;;;;;14.35;3.33;;;;;;;;;;5026544;28;20079;-85
2021/09/28 14:34:15;;;;;;;10.40;3.08;;;;;;;;;;5024693;28;20057;-84
2021/09/28 14:36:42;;;;;;;13.55;3.60;;;;;;;;;;5020742;28;20113;-82
2021/09/28 14:39:12;;;;;;;12.32;3.15;;;;;;;;;;5008433;28;20077;-84
2021/09/28 14:41:40;;;;;;;10.32;2.83;;;;;;;;;;5014787;28;20322;-83
2021/09/28 14:44:07;;;;;;;12.63;2.97;;;;;;;;;;5019648;28;20073;-83
2021/09/28 14:46:35;;;;;;;10.45;1.98;;;;;;;;;;5005297;28;20056;-83
2021/09/28 14:49:02;;;;;;;10.15;2.00;;;;;;;;;;5014054;28;20208;-84
2021/09/28 14:51:29;;;;;;;8.70;1.70;;;;;;;;;;5005497;28;20115;-84